Bookmark and Share
Track history (hours):
 

UCT Elwood

Last reported at 2013-Jan-10 09:24 UTC. Time now 2014-Apr-17 03:51 UTC.
Position N 53°52' E 008°43'.
Warning: this ship's position is years out of date!

Type: Ship (hazmat cat B). MMSI: 538002324.

NotesDate/timePositionNaut miles runAvg speedWind from/ knotsBaromVisibWave heightAir tempDewpointWater temp
2013-Jan-10 09:24N 53°52' E 008°43'0 0.3
2013-Jan-10 08:33N 53°52' E 008°43'0 0.0
2013-Jan-09 19:28N 53°52' E 008°43'4 4.5
2013-Jan-09 18:34N 53°56' E 008°40'1514.7
2013-Jan-09 17:33N 53°60' E 008°16'1010.3
2013-Jan-09 16:32N 54°01' E 007°58'1212.2
2013-Jan-09 15:33N 54°07' E 007°40'184 7.4
2013-Jan-08 14:33N 52°03' E 003°55'1312.7
2013-Jan-08 13:33N 51°56' E 004°13'9 9.1
2013-Jan-08 12:33N 51°51' E 004°24'8 8.7
2013-Jan-08 11:38N 51°48' E 004°37'7 0.3
2013-Jan-07 10:28N 51°42' E 004°34'7 7.3
2013-Jan-07 09:33N 51°48' E 004°37'1010.5
2013-Jan-07 08:34N 51°51' E 004°21'10 9.8
2013-Jan-07 07:34N 51°58' E 004°09'1211.8
2013-Jan-07 06:33N 51°60' E 003°50'1212.3
2013-Jan-07 05:33N 51°57' E 003°31'1312.8
2013-Jan-07 04:31N 51°52' E 003°10'5911.8
2013-Jan-06 23:33N 51°13' E 002°01'1313.0
2013-Jan-06 22:34N 51°05' E 001°44'1413.7
2013-Jan-06 21:32N 50°54' E 001°29'4013.0
2013-Jan-06 18:24N 50°26' E 000°43'1213.6
2013-Jan-06 17:31N 50°23' E 000°25'10514.7
2013-Jan-06 10:25N 49°56' W 002°12'1312.6
2013-Jan-06 09:24N 49°52' W 002°32'34412.8
2013-Jan-05 06:33N 45°35' W 008°10'2813.4
2013-Jan-05 04:27N 45°10' W 008°29'1213.3
2013-Jan-05 03:33N 44°59' W 008°38'1313.1
2013-Jan-05 02:34N 44°48' W 008°46'1313.1
2013-Jan-05 01:34N 44°37' W 008°55'1313.1
2013-Jan-05 00:33N 44°25' W 009°04'1413.4
2013-Jan-04 23:33N 44°13' W 009°13'1313.1
2013-Jan-04 22:33N 44°01' W 009°21'1313.1
2013-Jan-04 21:34N 43°50' W 009°29'1313.4
2013-Jan-04 20:33N 43°38' W 009°39'1413.5
2013-Jan-04 19:33N 43°27' W 009°48'1413.4
2013-Jan-04 18:31N 43°14' W 009°57'1313.5
2013-Jan-04 17:32N 43°01' W 009°57'2713.7
2013-Jan-04 15:32N 42°33' W 009°57'453 9.6
2013-Jan-02 16:33N 35°55' W 005°18'38 9.5
2013-Jan-02 12:32N 36°18' W 004°40'20912.2
2013-Jan-01 19:28N 37°32' W 000°36'1213.0
2013-Jan-01 18:33N 37°42' W 000°27'1413.3
2013-Jan-01 17:31N 37°53' W 000°18'13713.5
2013-Jan-01 07:25N 39°44' E 001°26'1213.3
2013-Jan-01 06:31N 39°53' E 001°36'24912.5
2012-Dec-31 10:33N 43°09' E 005°00'1313.1
2012-Dec-31 09:33N 43°22' E 004°58'  

Dump ship's entire track history

sailing weather and tide predictions

UCT Elwood — V7HW9 — position and weather